^^
MeteoGriva-Weather Station Historical Data
Daily Summary for November 29, 2020 Units:  English    Metric   Both
Daily Weekly Monthly Yearly Custom
  High: Low: Average:
Temperature: 55.8 °F 46.8 °F 50.5 °F
Dew Point: 53.2 °F 41.5 °F 46 °F
Humidity: 99% 66.1% 85%
Wind Speed: 6.6mph 0mph 0.6mph
Wind Gust: 10.7mph - -
Wind- - WSW
Pressure: 30.3 in 29.9 in -
Precipitation: 0.01 in    
Historical Graphs
 
 
Tabular Data for November 29, 2020
Time Temperature Dew Point Pressure Wind Wind Speed Wind Gust Humidity Rainfall Rate (Hourly) solar
00:04 47.7 °F 43 °F 30 in Calm     84.4% 0 in 0 W/m2
00:09 47.3 °F 42.8 °F 30 in Calm     84.1% 0 in 0 W/m2
00:14 47.1 °F 43 °F 30 in Calm     85.7% 0 in 0 W/m2
00:19 46.9 °F 43.9 °F 30 in Calm     88.8% 0 in 0 W/m2
00:24 46.9 °F 44.1 °F 30 in Calm     89.8% 0 in 0 W/m2
00:29 46.9 °F 44.2 °F 30 in Calm     90% 0 in 0 W/m2
00:34 46.9 °F 44.2 °F 30 in Calm     90.1% 0 in 0 W/m2
00:39 47.1 °F 44.6 °F 30 in Calm     91% 0 in 0 W/m2
00:44 47.1 °F 45 °F 30 in Calm     92% 0 in 0 W/m2
00:49 47.1 °F 45.1 °F 30 in Calm     92.7% 0 in 0 W/m2
00:54 47.5 °F 45.5 °F 30 in Calm     93% 0 in 0 W/m2
00:59 47.7 °F 46 °F 30 in Calm     93.8% 0 in 0 W/m2
01:04 47.7 °F 46 °F 30 in Calm     94% 0 in 0 W/m2
01:09 47.7 °F 46.4 °F 30 in Calm     95.7% 0 in 0 W/m2
01:14 47.5 °F 46.8 °F 30 in Calm     97.2% 0 in 0 W/m2
01:19 47.3 °F 46.4 °F 30 in Calm     96.6% 0 in 0 W/m2
01:24 47.3 °F 46.6 °F 30 in Calm     97% 0 in 0 W/m2
01:29 47.3 °F 46.8 °F 30 in Calm     97.4% 0 in 0 W/m2
01:34 47.3 °F 46.8 °F 30 in Calm     97.9% 0 in 0 W/m2
01:39 47.3 °F 46.8 °F 30 in Calm     97.9% 0 in 0 W/m2
01:44 47.3 °F 46.8 °F 30 in Calm     98% 0 in 0 W/m2
01:49 47.3 °F 46.6 °F 30 in Calm     97.4% 0 in 0 W/m2
01:54 47.3 °F 46.2 °F 30 in Calm     96% 0 in 0 W/m2
01:59 47.3 °F 46.2 °F 30 in Calm     96% 0 in 0 W/m2
02:04 47.3 °F 46.4 °F 30 in Calm     96.6% 0 in 0 W/m2
02:09 47.3 °F 46.6 °F 30 in Calm     97% 0 in 0 W/m2
02:14 47.3 °F 46.4 °F 30 in Calm     96.4% 0 in 0 W/m2
02:19 47.1 °F 46.4 °F 30 in Calm     97.1% 0 in 0 W/m2
02:24 47.1 °F 46.8 °F 30 in Calm     98.7% 0 in 0 W/m2
02:29 47.1 °F 46.8 °F 30 in Calm     98.6% 0 in 0 W/m2
02:34 47.1 °F 46.9 °F 30 in Calm     99% 0 in 0 W/m2
02:39 46.9 °F 46.8 °F 30 in Calm     99% 0 in 0 W/m2
02:44 46.9 °F 46.8 °F 30 in Calm     99% 0 in 0 W/m2
02:49 46.9 °F 46.8 °F 30 in Calm     99% 0 in 0 W/m2
02:54 47.1 °F 46.9 °F 30 in Calm     99% 0 in 0 W/m2
02:59 47.5 °F 47.3 °F 30 in Calm     99% 0 in 0 W/m2
03:04 47.5 °F 47.3 °F 30 in Calm     99% 0 in 0 W/m2
03:09 47.3 °F 47.1 °F 30 in Calm     99% 0 in 0 W/m2
03:14 47.3 °F 47.1 °F 30 in Calm     99% 0 in 0 W/m2
03:19 46.9 °F 46.8 °F 30 in Calm     99% 0 in 0 W/m2
03:24 46.9 °F 46.8 °F 30 in Calm     99% 0 in 0 W/m2
03:29 46.9 °F 46.8 °F 30 in Calm     99% 0 in 0 W/m2
03:34 46.9 °F 46.8 °F 30 in Calm     99% 0 in 0 W/m2
03:39 47.1 °F 46.9 °F 30 in Calm     99% 0 in 0 W/m2
03:44 46.9 °F 46.8 °F 30 in Calm     99% 0 in 0 W/m2
03:49 46.9 °F 46.8 °F 30 in Calm     99% 0 in 0 W/m2
03:54 46.9 °F 46.8 °F 30 in Calm     99% 0 in 0 W/m2
03:59 46.9 °F 46.8 °F 30 in Calm     99% 0 in 0 W/m2
04:04 46.9 °F 46.8 °F 30 in Calm     99% 0 in 0 W/m2
04:09 46.9 °F 46.8 °F 30 in Calm     99% 0 in 0 W/m2
04:14 46.9 °F 46.8 °F 30 in Calm     99% 0 in 0 W/m2
04:19 47.1 °F 46.9 °F 30 in Calm     99% 0 in 0 W/m2
04:24 47.1 °F 46.9 °F 30 in Calm     99% 0 in 0 W/m2
04:29 47.1 °F 46.9 °F 30 in Calm     99% 0 in 0 W/m2
04:34 47.1 °F 46.9 °F 30 in Calm     99% 0 in 0 W/m2
04:39 46.9 °F 46.8 °F 30 in Calm     99% 0 in 0 W/m2
04:44 46.9 °F 46.8 °F 30 in Calm     99% 0 in 0 W/m2
04:49 46.9 °F 46.8 °F 30 in Calm     99% 0 in 0 W/m2
04:54 47.1 °F 46.9 °F 30 in Calm     99% 0 in 0 W/m2
04:59 47.3 °F 47.1 °F 30 in Calm     99% 0 in 0 W/m2
05:04 47.3 °F 47.1 °F 30 in Calm     99% 0 in 0 W/m2
05:09 47.5 °F 47.1 °F 30 in Calm     99% 0 in 0 W/m2
05:14 47.5 °F 47.3 °F 30 in Calm     99% 0 in 0 W/m2
05:19 47.5 °F 47.3 °F 30 in Calm     99% 0 in 0 W/m2
05:24 47.5 °F 47.3 °F 30 in Calm     99% 0 in 0 W/m2
05:29 47.5 °F 47.3 °F 30 in Calm     99% 0 in 0 W/m2
05:34 47.5 °F 47.3 °F 30 in Calm     99% 0 in 0 W/m2
05:39 47.1 °F 46.9 °F 30 in Calm     99% 0 in 0 W/m2
05:44 47.1 °F 46.9 °F 30 in Calm     99% 0 in 0 W/m2
05:49 47.1 °F 46.9 °F 30 in Calm     99% 0 in 0 W/m2
05:54 47.1 °F 46.9 °F 30 in Calm     99% 0 in 0 W/m2
05:59 47.7 °F 47.5 °F 29.9 in Calm     99% 0 in 0 W/m2
06:04 47.7 °F 47.5 °F 30 in Calm     99% 0 in 0 W/m2
06:09 47.7 °F 47.5 °F 30 in Calm     99% 0 in 0 W/m2
06:14 47.7 °F 47.5 °F 30 in Calm     99% 0 in 0 W/m2
06:19 47.3 °F 47.1 °F 30 in Calm     99% 0 in 0 W/m2
06:24 47.3 °F 47.1 °F 30 in Calm     99% 0 in 0 W/m2
06:29 47.3 °F 47.1 °F 29.9 in Calm     99% 0 in 0 W/m2
06:34 47.1 °F 46.9 °F 29.9 in Calm     99% 0 in 0 W/m2
06:39 47.3 °F 47.1 °F 29.9 in Calm     99% 0 in 0 W/m2
06:44 47.3 °F 46.8 °F 29.9 in Calm     98.1% 0 in 0 W/m2
06:49 47.3 °F 46.8 °F 30 in Calm     98% 0 in 0 W/m2
06:54 47.3 °F 46.6 °F 30 in Calm     97.1% 0 in 0 W/m2
06:59 48 °F 46.9 °F 29.9 in Calm     96.2% 0 in 0 W/m2
07:04 48.2 °F 46.8 °F 29.9 in Calm     94.9% 0 in 0 W/m2
07:09 48.2 °F 46.6 °F 29.9 in Calm     94.3% 0 in 0 W/m2
07:14 48.2 °F 46.8 °F 29.9 in Calm     94.9% 0 in 0 W/m2
07:19 48.7 °F 47.1 °F 29.9 in Calm     94.3% 0 in 0 W/m2
07:24 48.7 °F 47.1 °F 29.9 in Calm     94% 0 in 0 W/m2
07:29 48.7 °F 47.1 °F 29.9 in Calm     94% 0 in 0 W/m2
07:34 48.7 °F 46.9 °F 29.9 in Calm     93.5% 0 in 0 W/m2
07:39 47.8 °F 46.9 °F 29.9 in Calm     96.6% 0 in 0 W/m2
07:44 47.7 °F 46.9 °F 30 in Calm     97.4% 0 in 0 W/m2
07:49 47.7 °F 47.1 °F 30 in Calm     98% 0 in 3 W/m2
07:54 47.5 °F 46.9 °F 30 in Calm     98% 0 in 5 W/m2
07:59 47.1 °F 46.6 °F 30 in Calm     98% 0 in 9 W/m2
08:04 46.8 °F 46 °F 30 in Calm     97.6% 0 in 12 W/m2
08:09 46.9 °F 46 °F 30 in Calm     96.4% 0 in 17 W/m2
08:14 46.9 °F 46 °F 30 in Calm     96.3% 0 in 25 W/m2
08:19 47.7 °F 46.6 °F 30 in Calm     96% 0 in 27 W/m2
08:24 47.8 °F 46.8 °F 30 in Calm     96% 0 in 29 W/m2
08:29 47.7 °F 46.6 °F 30 in Calm     96% 0 in 30 W/m2
08:34 47.8 °F 46.8 °F 30 in Calm     96% 0 in 33 W/m2
08:39 48.2 °F 46.8 °F 30 in ESE 0.4 mph 4.9 mph 94.8% 0 in 41 W/m2
08:44 48.4 °F 46.8 °F 30 in Calm     94% 0 in 47 W/m2
08:49 48.6 °F 46.8 °F 30 in Calm     93.8% 0 in 60 W/m2
08:54 48.6 °F 46.2 °F 30 in Calm     91.4% 0 in 60 W/m2
08:59 48.9 °F 46 °F 30 in Calm     90% 0 in 67 W/m2
09:04 49.3 °F 46.2 °F 30 in Calm     89.3% 0 in 73 W/m2
09:09 49.3 °F 46.2 °F 30 in Calm     89% 0 in 72 W/m2
09:14 49.5 °F 46.4 °F 30 in Calm     89% 0 in 66 W/m2
09:19 50.2 °F 46.8 °F 30 in Calm   2.5 mph 88.2% 0 in 90 W/m2
09:24 50.4 °F 46.9 °F 30 in Calm     88% 0 in 96 W/m2
09:29 50.4 °F 47.1 °F 30 in Calm     88.4% 0 in 91 W/m2
09:34 50.4 °F 47.1 °F 30 in Calm     88.2% 0 in 88 W/m2
09:39 50.7 °F 47.3 °F 30 in Calm     88% 0 in 88 W/m2
09:44 50.9 °F 47.5 °F 30 in Calm   2.5 mph 88% 0 in 86 W/m2
09:49 50.9 °F 47.5 °F 30 in Calm   2.5 mph 88.2% 0 in 86 W/m2
09:54 50.9 °F 47.3 °F 30 in Calm     87.7% 0.07 in 74 W/m2
09:59 51.3 °F 47.7 °F 30 in Calm     87.8% 0.07 in 85 W/m2
10:04 51.3 °F 47.8 °F 30 in Calm     88% 0 in 105 W/m2
10:09 51.4 °F 47.7 °F 30 in Calm     86.9% 0 in 109 W/m2
10:14 51.4 °F 47.7 °F 30 in Calm     86.7% 0 in 105 W/m2
10:18 51.8 °F 48 °F 30 in Calm     87% 0 in 105 W/m2
10:23 52 °F 48.6 °F 30 in Calm     88% 0 in 105 W/m2
10:29 52 °F 48.7 °F 30 in Calm     88.3% 0 in 90 W/m2
10:34 52 °F 48.6 °F 30 in Calm     88% 0 in 102 W/m2
10:39 52.3 °F 48.9 °F 30 in Calm     88% 0 in 130 W/m2
10:44 52.7 °F 48.7 °F 30 in Calm     86% 0 in 132 W/m2
10:49 52.9 °F 48.7 °F 30 in Calm     85.4% 0 in 109 W/m2
10:54 53.1 °F 49.6 °F 30 in Calm     88% 0 in 92 W/m2
10:59 52.7 °F 49.5 °F 30 in Calm     88.5% 0 in 104 W/m2
11:04 52.5 °F 49.3 °F 30 in Calm     88.4% 0 in 165 W/m2
11:08 52.7 °F 48.6 °F 30 in Calm     85.8% 0 in 175 W/m2
11:14 53.1 °F 48.6 °F 29.9 in Calm     84.2% 0 in 182 W/m2
11:19 54.3 °F 49.3 °F 30 in Calm     83.2% 0 in 179 W/m2
11:22 55.8 °F 51.3 °F 29.9 in Calm     85% 0 in 121 W/m2
11:29 55.2 °F 51.1 °F 29.9 in Calm     86% 0 in 116 W/m2
11:33 55 °F 50.9 °F 29.9 in Calm     86% 0 in 150 W/m2
11:39 54.7 °F 50.7 °F 29.9 in Calm     86.6% 0 in 153 W/m2
11:44 54.1 °F 50.4 °F 29.9 in Calm     87% 0 in 158 W/m2
11:48 54.1 °F 50.4 °F 29.9 in Calm     86.7% 0 in 148 W/m2
11:53 54.3 °F 50.7 °F 29.9 in Calm     87.5% 0 in 146 W/m2
11:59 54.3 °F 51.4 °F 29.9 in Calm     89.5% 0 in 149 W/m2
12:04 54.3 °F 51.6 °F 29.9 in Calm     90.4% 0 in 154 W/m2
12:08 54.3 °F 51.3 °F 29.9 in SE 0.2 mph 2.5 mph 89.8% 0 in 168 W/m2
12:14 54.5 °F 50.7 °F 29.9 in Calm     87.3% 0 in 148 W/m2
12:19 54.5 °F 51.3 °F 29.9 in Calm     89.2% 0 in 117 W/m2
12:24 54.1 °F 51.8 °F 29.9 in Calm     92% 0 in 77 W/m2
12:29 54.1 °F 52 °F 29.9 in Calm     92.5% 0 in 73 W/m2
12:32 54.1 °F 52.2 °F 29.9 in Calm     93% 0 in 57 W/m2
12:39 54 °F 52.2 °F 29.9 in Calm     94.3% 0 in 61 W/m2
12:44 53.6 °F 52.2 °F 29.9 in Calm     94.7% 0 in 79 W/m2
12:48 53.8 °F 52.2 °F 29.9 in Calm     94% 0 in 90 W/m2
12:54 53.8 °F 52.3 °F 29.9 in Calm     95.2% 0 in 85 W/m2
12:59 53.6 °F 52.3 °F 29.9 in Calm     95.2% 0 in 65 W/m2
13:03 53.6 °F 52.2 °F 29.9 in Calm     95% 0 in 61 W/m2
13:09 53.4 °F 52.2 °F 29.9 in Calm     95.3% 0 in 79 W/m2
13:13 53.4 °F 52.5 °F 29.9 in Calm     96.8% 0 in 78 W/m2
13:17 53.2 °F 52 °F 29.9 in Calm     95.7% 0 in 83 W/m2
14:44 55.8 °F 52.9 °F 29.9 in Calm     90% 0 in 193 W/m2
14:49 55.8 °F 53.2 °F 29.9 in Calm     90.9% 0 in 206 W/m2
14:54 55.8 °F 52.9 °F 29.9 in Calm   2.5 mph 89.9% 0 in 175 W/m2
14:59 55.8 °F 53.1 °F 29.9 in Calm     90.8% 0 in 101 W/m2
15:04 55 °F 52.7 °F 29.9 in SE 0.4 mph 4.9 mph 91.4% 0 in 87 W/m2
15:09 55 °F 52.7 °F 29.9 in Calm     92% 0 in 79 W/m2
15:14 55 °F 52.7 °F 29.9 in Calm     92% 0 in 71 W/m2
15:22 55 °F 52.5 °F 29.9 in Calm     91.5% 0 in 98 W/m2
15:29 54.1 °F 44.4 °F 30.3 in East 0.2 mph 2.7 mph 69.8% 0 in 116 W/m2
15:34 54.1 °F 44.6 °F 30.3 in East 0.9 mph 2.7 mph 69.8% 0 in 102 W/m2
15:39 54.1 °F 44.6 °F 30.3 in SSW 0.2 mph 2.5 mph 70% 0 in 75 W/m2
15:44 54 °F 44.2 °F 30.3 in South 0.6 mph 3.6 mph 69.4% 0 in 69 W/m2
15:49 54 °F 44.1 °F 30.3 in ENE 0.2 mph 2 mph 69% 0 in 68 W/m2
15:54 54 °F 43.5 °F 30.3 in ESE 1.4 mph 2.9 mph 67.7% 0 in 61 W/m2
15:59 54 °F 44.2 °F 30.1 in SE 1.6 mph 4 mph 69.6% 0 in 49 W/m2
16:04 54 °F 44.4 °F 30.1 in ESE 1.3 mph 3.4 mph 70.2% 0 in 40 W/m2
16:09 53.6 °F 44.4 °F 30.1 in SSE 1.1 mph 4.3 mph 71% 0 in 38 W/m2
16:14 53.6 °F 44.2 °F 30.1 in SSE 0.1 mph 3.6 mph 71% 0 in 38 W/m2
16:24 53.2 °F 44.6 °F 30.1 in ESE 0.4 mph 3.4 mph 72% 0 in 28 W/m2
16:29 53.2 °F 44.4 °F 30.1 in Calm   2.2 mph 72% 0 in 24 W/m2
16:34 53.2 °F 44.4 °F 30.1 in Calm   1.6 mph 72% 0 in 26 W/m2
16:39 53.1 °F 44.2 °F 30.1 in Calm     72% 0 in 14 W/m2
16:44 53.1 °F 44.4 °F 30.1 in Calm     72.4% 0 in 10 W/m2
16:49 52.9 °F 44.4 °F 30.1 in Calm     73% 0 in 7 W/m2
16:54 52.9 °F 44.2 °F 30.1 in Calm     73% 0 in 5 W/m2
16:59 52.7 °F 44.2 °F 30.1 in Calm     73% 0 in 3 W/m2
17:04 52.5 °F 44.4 °F 30.1 in Calm     73.7% 0 in 3 W/m2
17:09 52.5 °F 44.4 °F 30.1 in North 1.4 mph 2.5 mph 74% 0 in 0 W/m2
17:14 52.5 °F 44.4 °F 30.1 in North 1.3 mph 3.1 mph 74% 0 in 0 W/m2
17:19 52.5 °F 44.4 °F 30.1 in North 1.2 mph 2.2 mph 74% 0 in 0 W/m2
17:24 52.3 °F 44.6 °F 30.1 in North 1.1 mph 2.2 mph 74.7% 0 in 0 W/m2
17:29 52.3 °F 44.6 °F 30.1 in NNW 1.1 mph 2.5 mph 74.8% 0 in 0 W/m2
17:34 52.3 °F 44.6 °F 30.1 in North 0.6 mph 2.5 mph 75% 0 in 0 W/m2
17:39 52.2 °F 44.4 °F 30.1 in NNW 0.2 mph 1.8 mph 75% 0 in 0 W/m2
17:44 52.2 °F 44.4 °F 30.1 in NNW 0.6 mph 2 mph 75% 0 in 0 W/m2
17:49 52.2 °F 44.4 °F 30.1 in NNW 0.6 mph 2.2 mph 75% 0 in 0 W/m2
17:54 52 °F 44.1 °F 30.1 in North 0.7 mph 2.9 mph 74.7% 0 in 0 W/m2
17:59 52 °F 43.9 °F 30.1 in NNW 0.4 mph 2.9 mph 73.9% 0 in 0 W/m2
18:04 52 °F 43.3 °F 30.1 in NNW 1.4 mph 3.1 mph 72.3% 0 in 0 W/m2
18:09 52 °F 43 °F 30.1 in NNW 0.6 mph 3.1 mph 71.5% 0 in 0 W/m2
18:14 52.2 °F 42.6 °F 30.1 in NW 1 mph 3.1 mph 70.3% 0 in 0 W/m2
18:19 52.2 °F 42.6 °F 30.1 in NNW 0.4 mph 2.5 mph 70% 0 in 0 W/m2
18:24 52.2 °F 42.3 °F 30.1 in NW 1.2 mph 3.4 mph 68.7% 0 in 0 W/m2
18:29 52.3 °F 41.7 °F 30.1 in NW 2 mph 3.8 mph 66.9% 0 in 0 W/m2
18:34 52.5 °F 41.5 °F 30.1 in WNW 1.8 mph 3.8 mph 66.1% 0 in 0 W/m2
18:39 52.7 °F 42.3 °F 30.1 in NW 0.3 mph 3.1 mph 67.4% 0 in 0 W/m2
18:44 52.9 °F 42.3 °F 30.1 in Calm   2 mph 67% 0 in 0 W/m2
18:49 52.9 °F 42.6 °F 30.1 in NW 1.4 mph 3.1 mph 67.8% 0 in 0 W/m2
18:54 53.1 °F 42.4 °F 30.1 in NW 0.9 mph 3.1 mph 67.4% 0 in 0 W/m2
18:59 52.9 °F 42.6 °F 30.1 in NW 1.4 mph 3.1 mph 68% 0 in 0 W/m2
19:04 52.9 °F 42.6 °F 30.1 in NW 0.7 mph 2.5 mph 68% 0 in 0 W/m2
19:09 52.9 °F 42.6 °F 30.1 in NNE 0.9 mph 3.4 mph 68% 0 in 0 W/m2
19:14 52.7 °F 42.8 °F 30.1 in North 3 mph 4.9 mph 69.2% 0 in 0 W/m2
19:19 52.2 °F 42.6 °F 30.1 in NNW 2.2 mph 4.9 mph 70% 0 in 0 W/m2
19:24 52.2 °F 42.6 °F 30.1 in NW 1.5 mph 3.6 mph 70% 0 in 0 W/m2
19:29 52.2 °F 42.3 °F 30.1 in North 1.2 mph 3.4 mph 68.8% 0 in 0 W/m2
19:34 52.2 °F 42.3 °F 30.1 in North 1.1 mph 2.2 mph 69% 0 in 0 W/m2
19:39 52.2 °F 42.1 °F 30.1 in North 1.5 mph 3.4 mph 68.6% 0 in 0 W/m2
19:44 52.2 °F 42.3 °F 30.1 in NNW 1.6 mph 3.6 mph 69% 0 in 0 W/m2
19:49 52.3 °F 42.4 °F 30.1 in North 1.1 mph 3.6 mph 69% 0 in 0 W/m2
19:54 52.2 °F 42.3 °F 30.1 in NNW 1.1 mph 2.9 mph 69% 0 in 0 W/m2
19:59 52.2 °F 42.3 °F 30.1 in North 1.1 mph 3.1 mph 69% 0 in 0 W/m2
20:04 52.2 °F 42.3 °F 30.1 in North 0.8 mph 2.9 mph 69% 0 in 0 W/m2
20:09 52.2 °F 42.3 °F 30.1 in NNW 0.6 mph 1.8 mph 69% 0 in 0 W/m2
20:14 52.2 °F 42.3 °F 30.1 in NW 0.2 mph 1.8 mph 69% 0 in 0 W/m2
20:19 52.2 °F 42.3 °F 30.1 in NNW 0.6 mph 2 mph 68.8% 0 in 0 W/m2
20:24 52.2 °F 42.3 °F 30.1 in NNW 0.1 mph 2 mph 69% 0 in 0 W/m2
20:29 52.2 °F 42.3 °F 30.1 in NNW 0.9 mph 2.2 mph 69% 0 in 0 W/m2
20:34 52.2 °F 42.3 °F 30.1 in NNW 1 mph 2.5 mph 69% 0 in 0 W/m2
20:39 52.2 °F 42.4 °F 30.1 in NNW 0.1 mph 2.2 mph 69.2% 0 in 0 W/m2
20:44 52.2 °F 42.4 °F 30.1 in North 0.2 mph 1.6 mph 69.5% 0 in 0 W/m2
20:49 52.2 °F 42.6 °F 30.1 in Calm   1.3 mph 69.9% 0 in 0 W/m2
20:54 52.2 °F 42.4 °F 30.1 in Calm   1.1 mph 69.6% 0 in 0 W/m2
20:59 52.2 °F 42.3 °F 30.1 in Calm     69% 0 in 0 W/m2
21:04 52.2 °F 42.3 °F 30.1 in NNW 0.1 mph 1.6 mph 69% 0 in 0 W/m2
21:09 52.2 °F 42.4 °F 30.1 in North 1.3 mph 2.5 mph 69.2% 0 in 0 W/m2
21:14 52.3 °F 42.4 °F 30.1 in North 2.2 mph 4 mph 69% 0 in 0 W/m2
21:19 52.3 °F 42.3 °F 30.1 in North 2.2 mph 4 mph 68.7% 0 in 0 W/m2
21:24 52.5 °F 42.4 °F 30.1 in NNW 1.7 mph 3.8 mph 68.9% 0 in 0 W/m2
21:29 52.5 °F 42.6 °F 30.1 in North 2.1 mph 4.5 mph 69% 0 in 0 W/m2
21:34 52.3 °F 42.4 °F 30.1 in North 1.7 mph 3.4 mph 69% 0 in 0 W/m2
21:39 52.3 °F 42.6 °F 30.1 in NNW 1.6 mph 3.4 mph 69.6% 0 in 0 W/m2
21:44 52.3 °F 42.4 °F 30.1 in North 2.4 mph 4.9 mph 69.2% 0 in 0 W/m2
21:49 52.3 °F 42.4 °F 30.1 in North 2.8 mph 4.9 mph 69% 0 in 0 W/m2
21:54 52.3 °F 42.4 °F 30.1 in North 1.1 mph 4.3 mph 69% 0 in 0 W/m2
21:59 52.3 °F 42.4 °F 30.1 in North 1.8 mph 3.8 mph 69% 0 in 0 W/m2
22:04 52.3 °F 42.4 °F 30.1 in North 1.9 mph 3.4 mph 69% 0 in 0 W/m2
22:09 52.3 °F 42.8 °F 30.1 in North 1.3 mph 3.6 mph 69.9% 0 in 0 W/m2
22:14 52.3 °F 42.8 °F 30.1 in North 1.9 mph 3.4 mph 70% 0 in 0 W/m2
22:19 52.3 °F 42.8 °F 30.1 in NNE 2.4 mph 3.1 mph 70.4% 0 in 0 W/m2
22:24 51.8 °F 43.2 °F 30.1 in North 3.2 mph 4.9 mph 71.8% 0 in 0 W/m2
22:29 51.4 °F 43 °F 30.1 in NNW 2.8 mph 4.5 mph 72.4% 0 in 0 W/m2
22:34 51.3 °F 43.2 °F 30.1 in NNW 3.1 mph 6 mph 73% 0 in 0 W/m2
22:39 51.3 °F 43 °F 30.1 in NNW 4.8 mph 7.2 mph 73% 0 in 0 W/m2
22:44 51.1 °F 42.4 °F 30.1 in North 4.3 mph 8.3 mph 72% 0 in 0 W/m2
22:49 51.1 °F 42.4 °F 30.1 in NNW 4 mph 8.3 mph 72% 0 in 0 W/m2
22:54 51.1 °F 42.4 °F 30.1 in North 3.5 mph 8.3 mph 72% 0 in 0 W/m2
22:59 51.1 °F 42.4 °F 30.1 in North 4 mph 6.7 mph 72% 0 in 0 W/m2
23:04 51.1 °F 42.4 °F 30.1 in North 3 mph 6.5 mph 72% 0 in 0 W/m2
23:09 51.1 °F 42.4 °F 30.1 in North 2.4 mph 4.7 mph 72% 0 in 0 W/m2
23:14 51.1 °F 42.4 °F 30.1 in NNW 2.4 mph 5.1 mph 72.2% 0 in 0 W/m2
23:19 51.1 °F 42.6 °F 30.1 in North 3.7 mph 6 mph 72.4% 0 in 0 W/m2
23:24 51.3 °F 42.6 °F 30.1 in North 3.4 mph 6 mph 72% 0 in 0 W/m2
23:29 51.3 °F 42.6 °F 30.1 in NNW 3.2 mph 6.3 mph 72% 0 in 0 W/m2
23:34 51.3 °F 42.6 °F 30.1 in North 4 mph 8.3 mph 71.8% 0 in 0 W/m2
23:39 51.3 °F 42.3 °F 30.1 in NNW 4.9 mph 8.9 mph 71% 0 in 0 W/m2
23:44 51.3 °F 42.3 °F 30.1 in North 6.4 mph 10.5 mph 71% 0 in 0 W/m2
23:49 51.3 °F 42.3 °F 30.1 in North 6.3 mph 9.4 mph 71% 0 in 0 W/m2
23:54 51.3 °F 42.3 °F 30.1 in North 6.6 mph 10.7 mph 71% 0 in 0 W/m2
23:59 51.1 °F 41.9 °F 30.1 in North 5.8 mph 10.7 mph 70.4% 0 in 0 W/m2
Juneau County Weather
Compliments of Weather Underground - 2 mb